Al Khubar, Saudi Arabia
Current Conditions -  °F | °C
As of 6:00 AM on Sunday 23 Nov 2014 (Local Time) from OEDR Reporting Station
Broken Clouds Broken Clouds  
Wind Chill: 72°   Ceiling: 8000
Heat Index: 72°   Visibility: 6mi
Dew Point: 54°   Wind: 6mph
Humidity: 53%   Direction: 280°W
Pressure: 29.88"   Gusts: NA
Location:  26.29°N, 50.21°E
Report Text: OEDR 230300Z 28005KT 9000 FEW030CB BKN080 22/12 Q1012 NOSIG
Loading
Personal Weather Stations






























Interactive Weather Map New forecast layout! Learn more

10-Day Weather Forecast

Advertisements
Track Severe Weather on mobile